Time;durP1;ratioP1;P1;durP2;ratioP2;P2;SDS_P1;SDS_P2;PMS_P1;PMS_P2;Temp;Humidity;BMP_temperature;BMP_pressure;BME280_temperature;BME280_humidity;BME280_pressure;Samples;Min_cycle;Max_cycle;Signal;HPM_P1;HPM_P2
2024/01/05 00:02:02;;;;;;;3.63;0.80;;;;;;;;;;20854923;28;20812;-70
2024/01/05 00:12:04;;;;;;;1.27;0.70;;;;;;;;;;20839447;28;20286;-71
2024/01/05 00:22:06;;;;;;;1.63;0.70;;;;;;;;;;20867095;28;20278;-70
2024/01/05 00:32:07;;;;;;;2.20;0.70;;;;;;;;;;20853071;28;20757;-70
2024/01/05 00:42:10;;;;;;;2.77;0.90;;;;;;;;;;20838343;28;20225;-70
2024/01/05 00:52:12;;;;;;;2.30;0.90;;;;;;;;;;20869482;28;20230;-70
2024/01/05 01:02:14;;;;;;;3.83;1.03;;;;;;;;;;20851552;28;20276;-71
2024/01/05 01:12:16;;;;;;;1.43;0.93;;;;;;;;;;20853459;28;20271;-70
2024/01/05 01:22:18;;;;;;;1.50;0.83;;;;;;;;;;20859536;28;20279;-70
2024/01/05 01:32:19;;;;;;;1.00;0.50;;;;;;;;;;20836112;28;20214;-70
2024/01/05 01:42:21;;;;;;;1.87;0.60;;;;;;;;;;20862762;28;20226;-71
2024/01/05 01:52:23;;;;;;;1.97;1.17;;;;;;;;;;20850679;28;20218;-70
2024/01/05 02:02:25;;;;;;;0.83;0.50;;;7.40;99.90;;;;;;20823284;28;20256;-70
2024/01/05 02:12:27;;;;;;;4.70;0.77;;;;;;;;;;20856767;28;20225;-71
2024/01/05 02:22:30;;;;;;;1.97;0.70;;;4.90;99.90;;;;;;20846506;28;20305;-72
2024/01/05 02:32:32;;;;;;;1.33;0.70;;;;;;;;;;20865127;28;20215;-72
2024/01/05 02:42:34;;;;;;;1.60;0.57;;;;;;;;;;20870632;28;20309;-72
2024/01/05 02:52:36;;;;;;;3.03;0.77;;;;;;;;;;20839592;28;20761;-72
2024/01/05 03:02:37;;;;;;;1.60;0.60;;;;;;;;;;20841932;28;20656;-72
2024/01/05 03:12:39;;;;;;;1.17;0.40;;;;;;;;;;20837174;28;20272;-71
2024/01/05 03:22:41;;;;;;;1.50;0.50;;;;;;;;;;20831047;28;20292;-73
2024/01/05 03:32:43;;;;;;;1.93;0.77;;;;;;;;;;20867273;28;20260;-71
2024/01/05 03:42:44;;;;;;;1.93;0.80;;;;;;;;;;20882772;28;20789;-72
2024/01/05 03:52:46;;;;;;;1.60;0.57;;;;;;;;;;20873203;28;20221;-73
2024/01/05 04:02:48;;;;;;;2.23;0.70;;;;;;;;;;20838400;28;20225;-72
2024/01/05 04:12:50;;;;;;;2.20;0.90;;;;;;;;;;20912226;23;20234;-66
2024/01/05 04:22:52;;;;;;;1.80;0.90;;;;;;;;;;20871315;28;20214;-66
2024/01/05 04:32:53;;;;;;;2.00;0.80;;;;;;;;;;20919437;28;20221;-66
2024/01/05 04:42:55;;;;;;;2.27;0.60;;;;;;;;;;20864183;28;20628;-66
2024/01/05 04:52:57;;;;;;;0.93;0.37;;;;;;;;;;20907888;28;20217;-66
2024/01/05 05:02:59;;;;;;;0.57;0.40;;;;;;;;;;20872582;28;20299;-66
2024/01/05 05:13:01;;;;;;;1.17;0.63;;;;;;;;;;20884178;28;20226;-66
2024/01/05 05:23:03;;;;;;;1.40;0.70;;;;;;;;;;20879798;28;20284;-66
2024/01/05 05:33:05;;;;;;;2.03;0.40;;;;;;;;;;20884174;28;20230;-66
2024/01/05 05:43:08;;;;;;;2.83;0.90;;;;;;;;;;20873425;28;20710;-66
2024/01/05 05:53:10;;;;;;;1.80;1.00;;;;;;;;;;20844986;28;20297;-66
2024/01/05 06:03:11;;;;;;;1.57;1.03;;;;;;;;;;20866157;28;20225;-66
2024/01/05 06:13:13;;;;;;;1.90;1.00;;;;;;;;;;20845622;28;20693;-66
2024/01/05 06:23:15;;;;;;;3.40;1.37;;;;;;;;;;20861176;28;20217;-66
2024/01/05 06:33:17;;;;;;;2.70;1.40;;;;;;;;;;20824869;28;20218;-66
2024/01/05 06:43:19;;;;;;;1.40;0.70;;;;;;;;;;20837259;28;20226;-66
2024/01/05 06:53:20;;;;;;;1.17;0.70;;;;;;;;;;20876805;28;20272;-66
2024/01/05 07:03:22;;;;;;;1.90;0.73;;;;;;;;;;20843164;28;20284;-67
2024/01/05 07:13:24;;;;;;;1.30;0.50;;;;;;;;;;20819218;28;20253;-66
2024/01/05 07:23:28;;;;;;;5.30;1.27;;;;;;;;;;20826469;28;20229;-66
2024/01/05 07:33:31;;;;;;;2.30;0.83;;;6.80;99.90;;;;;;20855112;28;20591;-66
2024/01/05 07:43:33;;;;;;;3.30;0.90;;;;;;;;;;20831943;28;20252;-66
2024/01/05 07:53:35;;;;;;;0.40;0.30;;;5.70;99.90;;;;;;20835172;28;20211;-66
2024/01/05 08:03:36;;;;;;;1.37;0.73;;;;;;;;;;20853362;28;20221;-66
2024/01/05 08:13:39;;;;;;;1.33;0.70;;;;;;;;;;20854096;28;20570;-66
2024/01/05 08:23:41;;;;;;;1.97;0.70;;;;;;;;;;20859896;28;20705;-66
2024/01/05 08:33:43;;;;;;;2.90;0.80;;;;;;;;;;20842603;28;20209;-69
2024/01/05 08:43:45;;;;;;;2.10;1.13;;;;;;;;;;20882626;28;20213;-66
2024/01/05 08:53:47;;;;;;;1.17;0.63;;;;;;;;;;20853896;28;20681;-66
2024/01/05 09:03:49;;;;;;;1.50;0.70;;;;;;;;;;20878750;28;20693;-66
2024/01/05 09:13:51;;;;;;;1.67;0.50;;;;;;;;;;20871830;28;20306;-67
2024/01/05 09:23:53;;;;;;;2.90;0.60;;;;;;;;;;20882371;28;20222;-67
2024/01/05 09:33:55;;;;;;;2.33;0.67;;;;;;;;;;20889120;28;20213;-67
2024/01/05 09:43:57;;;;;;;0.43;0.20;;;;;;;;;;20897131;28;20275;-67
2024/01/05 09:54:19;;;;;;;2.37;0.50;;;;;;;;;;20846316;28;20575;-67
2024/01/05 10:04:42;;;;;;;1.20;0.40;;;;;;;;;;20873716;22;20279;-70
2024/01/05 10:15:05;;;;;;;0.73;0.53;;;8.00;99.90;;;;;;20973240;28;20634;-70
2024/01/05 10:25:27;;;;;;;1.00;0.67;;;;;;;;;;20936170;28;20232;-70
2024/01/05 10:35:49;;;;;;;1.20;0.40;;;;;;;;;;20913466;28;20213;-70
2024/01/05 10:46:17;;;;;;;2.43;0.60;;;;;;;;;;20977029;28;20221;-70
2024/01/05 10:56:41;;;;;;;0.50;0.40;;;;;;;;;;20940598;28;20286;-70
2024/01/05 11:07:03;;;;;;;1.90;0.43;;;9.70;99.90;;;;;;20947996;28;20225;-70
2024/01/05 11:17:37;;;;;;;0.67;0.47;;;;;;;;;;20938511;28;20209;-71
2024/01/05 11:27:58;;;;;;;0.57;0.30;;;;;;;;;;20941803;28;20676;-70
2024/01/05 11:38:25;;;;;;;2.50;0.40;;;8.60;99.90;;;;;;20927939;28;20251;-70
2024/01/05 11:48:40;;;;;;;0.97;0.40;;;;;;;;;;20946128;28;20216;-70
2024/01/05 11:59:02;;;;;;;0.13;0.13;;;;;;;;;;20941030;28;20221;-70
2024/01/05 12:09:24;;;;;;;0.80;0.30;;;;;;;;;;20962213;28;21323;-69
2024/01/05 12:19:46;;;;;;;0.47;0.30;;;;;;;;;;20939698;28;20577;-69
2024/01/05 12:30:09;;;;;;;0.50;0.27;;;8.70;99.90;;;;;;20932515;28;20209;-69
2024/01/05 12:40:31;;;;;;;0.60;0.20;;;;;;;;;;20935937;28;20765;-70
2024/01/05 12:51:11;;;;;;;1.23;0.63;;;9.00;99.90;;;;;;20937604;28;20294;-70
2024/01/05 13:01:33;;;;;;;0.30;0.30;;;;;;;;;;20949341;28;20208;-69
2024/01/05 13:11:56;;;;;;;1.83;0.43;;;;;;;;;;20938872;28;20229;-69
2024/01/05 13:22:17;;;;;;;0.17;0.13;;;;;;;;;;20959507;28;20890;-69
2024/01/05 13:32:42;;;;;;;0.87;0.30;;;9.30;99.90;;;;;;20919626;28;20221;-69
2024/01/05 13:43:05;;;;;;;0.43;0.30;;;11.00;99.90;;;;;;20961753;28;20711;-69
2024/01/05 13:53:27;;;;;;;0.93;0.20;;;;;;;;;;20926463;28;20526;-70
2024/01/05 14:03:49;;;;;;;0.93;0.50;;;;;;;;;;20925571;28;20272;-71
2024/01/05 14:14:10;;;;;;;0.53;0.40;;;;;;;;;;20917325;28;20251;-70
2024/01/05 14:24:32;;;;;;;2.73;0.57;;;;;;;;;;20928482;28;20255;-71
2024/01/05 14:34:54;;;;;;;1.13;0.43;;;;;;;;;;20901909;28;20599;-71
2024/01/05 14:45:16;;;;;;;0.50;0.20;;;;;;;;;;20941818;28;20243;-70
2024/01/05 14:55:37;;;;;;;0.53;0.20;;;;;;;;;;20905825;28;20226;-71
2024/01/05 15:05:59;;;;;;;0.50;0.30;;;;;;;;;;20940196;28;20228;-70
2024/01/05 15:16:21;;;;;;;0.73;0.40;;;;;;;;;;20918716;28;20251;-70
2024/01/05 15:26:44;;;;;;;0.43;0.20;;;8.50;99.90;;;;;;20922236;28;20704;-71
2024/01/05 15:37:06;;;;;;;0.97;0.63;;;;;;;;;;20951410;28;20262;-71
2024/01/05 15:47:28;;;;;;;0.73;0.50;;;;;;;;;;20916207;28;20595;-71
2024/01/05 15:57:50;;;;;;;1.87;0.40;;;;;;;;;;20929238;28;20209;-71
2024/01/05 16:08:13;;;;;;;0.57;0.30;;;;;;;;;;20982859;22;20237;-70
2024/01/05 16:18:35;;;;;;;0.60;0.30;;;;;;;;;;20918555;28;21001;-69
2024/01/05 16:28:56;;;;;;;0.50;0.30;;;;;;;;;;20915974;28;20299;-68
2024/01/05 16:39:18;;;;;;;0.60;0.40;;;;;;;;;;20924866;28;20290;-68
2024/01/05 16:49:40;;;;;;;0.43;0.27;;;;;;;;;;20932843;28;20217;-69
2024/01/05 17:00:02;;;;;;;0.90;0.33;;;;;;;;;;20905579;28;20278;-68
2024/01/05 17:10:23;;;;;;;1.90;0.67;;;;;;;;;;20902582;28;20665;-70
2024/01/05 17:20:45;;;;;;;0.47;0.33;;;;;;;;;;20910967;28;20620;-67
2024/01/05 17:31:08;;;;;;;0.60;0.50;;;7.80;99.90;;;;;;20910948;28;20689;-68
2024/01/05 17:41:30;;;;;;;0.73;0.37;;;;;;;;;;20946310;28;20220;-68
2024/01/05 17:51:52;;;;;;;0.40;0.30;;;8.00;99.90;;;;;;20924755;28;20580;-69
2024/01/05 18:02:14;;;;;;;1.63;0.50;;;;;;;;;;20883373;28;20256;-69
2024/01/05 18:12:16;;;;;;;0.63;0.40;;;;;;;;;;20923257;28;20293;-69
2024/01/05 18:22:19;;;;;;;2.50;0.60;;;;;;;;;;20895395;28;20225;-69
2024/01/05 18:32:21;;;;;;;0.90;0.60;;;;;;;;;;20902422;28;20210;-69
2024/01/05 18:42:23;;;;;;;1.23;0.60;;;;;;;;;;20930618;28;20644;-69
2024/01/05 18:52:25;;;;;;;1.80;0.53;;;;;;;;;;20946217;28;20221;-69
2024/01/05 19:02:30;;;;;;;1.17;0.60;;;;;;;;;;20913400;28;20221;-69
2024/01/05 19:12:32;;;;;;;1.37;0.83;;;;;;;;;;20909840;28;20229;-69
2024/01/05 19:22:40;;;;;;;1.27;0.60;;;;;;;;;;20926288;28;20243;-69
2024/01/05 19:32:42;;;;;;;6.53;4.13;;;;;;;;;;20956988;28;20212;-69
2024/01/05 19:42:51;;;;;;;0.90;0.50;;;;;;;;;;20902049;28;20260;-69
2024/01/05 19:53:00;;;;;;;2.10;0.80;;;;;;;;;;20878818;28;20280;-69
2024/01/05 20:03:04;;;;;;;0.80;0.50;;;;;;;;;;20850573;28;20700;-69
2024/01/05 20:13:08;;;;;;;1.30;0.70;;;;;;;;;;20859922;28;20265;-68
2024/01/05 20:23:11;;;;;;;2.97;0.67;;;;;;;;;;20878579;28;20384;-68
2024/01/05 20:33:13;;;;;;;4.17;0.77;;;;;;;;;;20862619;28;20634;-68
2024/01/05 20:43:15;;;;;;;2.20;0.80;;;;;;;;;;20871593;28;20303;-69
2024/01/05 20:53:17;;;;;;;1.43;0.70;;;6.80;99.90;;;;;;20859817;28;20249;-69
2024/01/05 21:03:19;;;;;;;1.43;0.60;;;8.10;99.90;;;;;;20838073;28;20218;-69
2024/01/05 21:13:21;;;;;;;1.37;0.60;;;;;;;;;;20875020;28;20278;-68
2024/01/05 21:23:23;;;;;;;1.90;0.60;;;;;;;;;;20844931;28;20271;-69
2024/01/05 21:33:25;;;;;;;1.40;0.43;;;;;;;;;;20856345;28;20226;-68
2024/01/05 21:43:27;;;;;;;0.93;0.53;;;;;;;;;;20847856;28;20222;-68
2024/01/05 21:53:29;;;;;;;1.10;0.50;;;;;;;;;;20886219;28;20585;-68
2024/01/05 22:03:32;;;;;;;0.50;0.30;;;;;;;;;;20867254;28;20292;-68
2024/01/05 22:13:34;;;;;;;0.80;0.40;;;;;;;;;;20961218;23;20259;-82
2024/01/05 22:23:37;;;;;;;1.13;0.50;;;;;;;;;;20956446;28;20236;-83
2024/01/05 22:33:39;;;;;;;1.30;0.60;;;;;;;;;;20947505;28;20214;-81
2024/01/05 22:43:41;;;;;;;0.97;0.40;;;6.50;99.90;;;;;;20947627;28;20229;-82
2024/01/05 22:53:42;;;;;;;0.80;0.60;;;;;;;;;;20995741;28;20212;-80
2024/01/05 23:03:45;;;;;;;1.17;0.47;;;6.40;99.90;;;;;;20991186;28;20565;-82
2024/01/05 23:13:47;;;;;;;0.83;0.47;;;;;;;;;;21000895;28;20302;-83
2024/01/05 23:23:48;;;;;;;0.80;0.53;;;;;;;;;;20980861;28;20217;-82
2024/01/05 23:33:52;;;;;;;1.70;0.70;;;;;;;;;;21005122;28;20209;-82
2024/01/05 23:43:54;;;;;;;0.60;0.40;;;;;;;;;;21016038;28;20233;-81
2024/01/05 23:53:56;;;;;;;1.13;0.47;;;;;;;;;;21058184;28;20359;-84
